sensor_id;sensor_type;location;lat;lon;timestamp;P1;durP1;ratioP1;P2;durP2;ratioP2
24145;SDS011;12308;50.948;4.706;2022-08-19T00:00:19;38.55;;;29.40;;
24145;SDS011;12308;50.948;4.706;2022-08-19T00:02:45;34.03;;;28.15;;
24145;SDS011;12308;50.948;4.706;2022-08-19T00:05:12;34.10;;;28.00;;
24145;SDS011;12308;50.948;4.706;2022-08-19T00:07:39;33.70;;;28.23;;
24145;SDS011;12308;50.948;4.706;2022-08-19T00:10:08;31.98;;;27.80;;
24145;SDS011;12308;50.948;4.706;2022-08-19T00:12:35;32.58;;;28.05;;
24145;SDS011;12308;50.948;4.706;2022-08-19T00:15:03;35.55;;;27.65;;
24145;SDS011;12308;50.948;4.706;2022-08-19T00:17:30;34.17;;;27.52;;
24145;SDS011;12308;50.948;4.706;2022-08-19T00:19:56;38.20;;;29.55;;
24145;SDS011;12308;50.948;4.706;2022-08-19T00:22:21;33.10;;;27.25;;
24145;SDS011;12308;50.948;4.706;2022-08-19T00:24:47;34.03;;;28.35;;
24145;SDS011;12308;50.948;4.706;2022-08-19T00:27:13;36.33;;;27.27;;
24145;SDS011;12308;50.948;4.706;2022-08-19T00:29:39;42.47;;;31.80;;
24145;SDS011;12308;50.948;4.706;2022-08-19T00:32:05;49.63;;;31.55;;
24145;SDS011;12308;50.948;4.706;2022-08-19T00:34:31;48.72;;;33.78;;
24145;SDS011;12308;50.948;4.706;2022-08-19T00:36:58;45.65;;;33.58;;
24145;SDS011;12308;50.948;4.706;2022-08-19T00:39:25;46.13;;;33.67;;
24145;SDS011;12308;50.948;4.706;2022-08-19T00:41:50;47.35;;;32.50;;
24145;SDS011;12308;50.948;4.706;2022-08-19T00:44:26;52.75;;;34.70;;
24145;SDS011;12308;50.948;4.706;2022-08-19T00:46:54;49.28;;;33.90;;
24145;SDS011;12308;50.948;4.706;2022-08-19T00:49:25;49.13;;;33.55;;
24145;SDS011;12308;50.948;4.706;2022-08-19T00:52:00;44.95;;;33.45;;
24145;SDS011;12308;50.948;4.706;2022-08-19T00:54:33;45.92;;;32.58;;
24145;SDS011;12308;50.948;4.706;2022-08-19T00:57:02;47.38;;;32.15;;
24145;SDS011;12308;50.948;4.706;2022-08-19T00:59:31;55.13;;;35.65;;
24145;SDS011;12308;50.948;4.706;2022-08-19T01:01:59;55.10;;;34.53;;
24145;SDS011;12308;50.948;4.706;2022-08-19T01:04:25;53.03;;;34.65;;
24145;SDS011;12308;50.948;4.706;2022-08-19T01:06:51;57.78;;;36.97;;
24145;SDS011;12308;50.948;4.706;2022-08-19T01:09:16;57.72;;;36.70;;
24145;SDS011;12308;50.948;4.706;2022-08-19T01:11:42;55.60;;;37.92;;
24145;SDS011;12308;50.948;4.706;2022-08-19T01:14:10;55.50;;;37.80;;
24145;SDS011;12308;50.948;4.706;2022-08-19T01:16:37;64.13;;;40.45;;
24145;SDS011;12308;50.948;4.706;2022-08-19T01:19:09;63.10;;;38.58;;
24145;SDS011;12308;50.948;4.706;2022-08-19T01:21:50;74.68;;;42.47;;
24145;SDS011;12308;50.948;4.706;2022-08-19T01:24:26;69.68;;;42.03;;
24145;SDS011;12308;50.948;4.706;2022-08-19T01:26:52;72.20;;;43.45;;
24145;SDS011;12308;50.948;4.706;2022-08-19T01:29:18;69.28;;;43.55;;
24145;SDS011;12308;50.948;4.706;2022-08-19T01:31:43;70.18;;;44.72;;
24145;SDS011;12308;50.948;4.706;2022-08-19T01:34:09;73.72;;;44.67;;
24145;SDS011;12308;50.948;4.706;2022-08-19T01:36:40;82.13;;;45.75;;
24145;SDS011;12308;50.948;4.706;2022-08-19T01:39:16;77.93;;;45.83;;
24145;SDS011;12308;50.948;4.706;2022-08-19T01:41:48;80.88;;;46.17;;
24145;SDS011;12308;50.948;4.706;2022-08-19T01:44:14;81.10;;;47.55;;
24145;SDS011;12308;50.948;4.706;2022-08-19T01:46:41;88.78;;;48.10;;
24145;SDS011;12308;50.948;4.706;2022-08-19T01:49:07;83.75;;;47.58;;
24145;SDS011;12308;50.948;4.706;2022-08-19T01:51:33;84.30;;;47.33;;
24145;SDS011;12308;50.948;4.706;2022-08-19T01:54:00;82.07;;;45.80;;
24145;SDS011;12308;50.948;4.706;2022-08-19T01:56:26;87.78;;;48.65;;
24145;SDS011;12308;50.948;4.706;2022-08-19T01:59:00;88.15;;;49.83;;
24145;SDS011;12308;50.948;4.706;2022-08-19T02:01:29;87.18;;;49.20;;
24145;SDS011;12308;50.948;4.706;2022-08-19T02:03:57;82.63;;;46.95;;
24145;SDS011;12308;50.948;4.706;2022-08-19T02:06:23;77.78;;;46.65;;
24145;SDS011;12308;50.948;4.706;2022-08-19T02:08:49;89.75;;;49.22;;
24145;SDS011;12308;50.948;4.706;2022-08-19T02:11:23;81.13;;;48.70;;
24145;SDS011;12308;50.948;4.706;2022-08-19T02:13:52;89.03;;;50.85;;
24145;SDS011;12308;50.948;4.706;2022-08-19T02:16:21;85.35;;;48.45;;
24145;SDS011;12308;50.948;4.706;2022-08-19T02:18:47;84.90;;;49.05;;
24145;SDS011;12308;50.948;4.706;2022-08-19T02:21:19;84.93;;;48.15;;
24145;SDS011;12308;50.948;4.706;2022-08-19T02:23:46;84.20;;;49.03;;
24145;SDS011;12308;50.948;4.706;2022-08-19T02:26:13;87.88;;;50.55;;
24145;SDS011;12308;50.948;4.706;2022-08-19T02:28:40;89.70;;;50.38;;
24145;SDS011;12308;50.948;4.706;2022-08-19T02:31:10;87.72;;;50.30;;
24145;SDS011;12308;50.948;4.706;2022-08-19T02:33:45;85.65;;;48.58;;
24145;SDS011;12308;50.948;4.706;2022-08-19T02:36:12;85.10;;;49.00;;
24145;SDS011;12308;50.948;4.706;2022-08-19T02:38:39;85.55;;;50.05;;
24145;SDS011;12308;50.948;4.706;2022-08-19T02:41:12;88.18;;;50.13;;
24145;SDS011;12308;50.948;4.706;2022-08-19T02:43:46;92.95;;;51.33;;
24145;SDS011;12308;50.948;4.706;2022-08-19T02:46:16;90.93;;;48.33;;
24145;SDS011;12308;50.948;4.706;2022-08-19T02:48:49;92.85;;;50.17;;
24145;SDS011;12308;50.948;4.706;2022-08-19T02:51:18;97.25;;;52.63;;
24145;SDS011;12308;50.948;4.706;2022-08-19T02:53:46;89.03;;;52.97;;
24145;SDS011;12308;50.948;4.706;2022-08-19T02:56:12;92.32;;;51.72;;
24145;SDS011;12308;50.948;4.706;2022-08-19T02:58:38;94.95;;;52.78;;
24145;SDS011;12308;50.948;4.706;2022-08-19T03:01:03;91.15;;;51.17;;
24145;SDS011;12308;50.948;4.706;2022-08-19T03:03:29;98.28;;;51.28;;
24145;SDS011;12308;50.948;4.706;2022-08-19T03:06:05;89.30;;;50.85;;
24145;SDS011;12308;50.948;4.706;2022-08-19T03:08:37;89.90;;;48.67;;
24145;SDS011;12308;50.948;4.706;2022-08-19T03:11:03;93.53;;;50.65;;
24145;SDS011;12308;50.948;4.706;2022-08-19T03:13:29;91.10;;;49.90;;
24145;SDS011;12308;50.948;4.706;2022-08-19T03:15:55;95.03;;;50.67;;
24145;SDS011;12308;50.948;4.706;2022-08-19T03:18:21;100.22;;;53.55;;
24145;SDS011;12308;50.948;4.706;2022-08-19T03:20:47;88.05;;;48.75;;
24145;SDS011;12308;50.948;4.706;2022-08-19T03:23:15;79.25;;;46.00;;
24145;SDS011;12308;50.948;4.706;2022-08-19T03:25:43;88.90;;;48.65;;
24145;SDS011;12308;50.948;4.706;2022-08-19T03:28:10;88.20;;;48.08;;
24145;SDS011;12308;50.948;4.706;2022-08-19T03:30:38;89.05;;;50.05;;
24145;SDS011;12308;50.948;4.706;2022-08-19T03:33:09;95.90;;;50.90;;
24145;SDS011;12308;50.948;4.706;2022-08-19T03:35:37;86.80;;;48.80;;
24145;SDS011;12308;50.948;4.706;2022-08-19T03:38:03;94.80;;;50.33;;
24145;SDS011;12308;50.948;4.706;2022-08-19T03:40:30;91.57;;;47.95;;
24145;SDS011;12308;50.948;4.706;2022-08-19T03:42:56;88.10;;;46.65;;
24145;SDS011;12308;50.948;4.706;2022-08-19T03:45:22;79.78;;;45.75;;
24145;SDS011;12308;50.948;4.706;2022-08-19T03:47:49;84.57;;;46.70;;
24145;SDS011;12308;50.948;4.706;2022-08-19T03:50:15;82.32;;;43.67;;
24145;SDS011;12308;50.948;4.706;2022-08-19T03:52:41;80.80;;;45.30;;
24145;SDS011;12308;50.948;4.706;2022-08-19T03:55:07;79.95;;;45.30;;
24145;SDS011;12308;50.948;4.706;2022-08-19T03:57:33;88.35;;;46.60;;
24145;SDS011;12308;50.948;4.706;2022-08-19T03:59:59;84.78;;;46.22;;
24145;SDS011;12308;50.948;4.706;2022-08-19T04:02:26;82.47;;;43.95;;
24145;SDS011;12308;50.948;4.706;2022-08-19T04:04:53;80.85;;;45.47;;
24145;SDS011;12308;50.948;4.706;2022-08-19T04:07:19;77.93;;;43.92;;
24145;SDS011;12308;50.948;4.706;2022-08-19T04:09:46;82.22;;;43.65;;
24145;SDS011;12308;50.948;4.706;2022-08-19T04:12:12;74.93;;;41.40;;
24145;SDS011;12308;50.948;4.706;2022-08-19T04:14:39;81.63;;;43.70;;
24145;SDS011;12308;50.948;4.706;2022-08-19T04:17:06;76.80;;;41.65;;
24145;SDS011;12308;50.948;4.706;2022-08-19T04:19:33;79.93;;;43.72;;
24145;SDS011;12308;50.948;4.706;2022-08-19T04:22:00;78.65;;;43.40;;
24145;SDS011;12308;50.948;4.706;2022-08-19T04:24:26;76.40;;;42.33;;
24145;SDS011;12308;50.948;4.706;2022-08-19T04:26:52;79.10;;;42.58;;
24145;SDS011;12308;50.948;4.706;2022-08-19T04:29:19;76.05;;;42.22;;
24145;SDS011;12308;50.948;4.706;2022-08-19T04:31:47;75.57;;;41.40;;
24145;SDS011;12308;50.948;4.706;2022-08-19T04:34:16;72.45;;;40.90;;
24145;SDS011;12308;50.948;4.706;2022-08-19T04:36:47;76.57;;;40.63;;
24145;SDS011;12308;50.948;4.706;2022-08-19T04:39:17;75.55;;;41.47;;
24145;SDS011;12308;50.948;4.706;2022-08-19T04:42:08;72.38;;;39.70;;
24145;SDS011;12308;50.948;4.706;2022-08-19T04:44:52;70.60;;;39.53;;
24145;SDS011;12308;50.948;4.706;2022-08-19T04:47:18;70.78;;;40.00;;
24145;SDS011;12308;50.948;4.706;2022-08-19T04:49:43;66.93;;;38.00;;
24145;SDS011;12308;50.948;4.706;2022-08-19T04:52:09;67.20;;;37.88;;
24145;SDS011;12308;50.948;4.706;2022-08-19T04:54:35;66.63;;;37.75;;
24145;SDS011;12308;50.948;4.706;2022-08-19T04:57:00;68.80;;;36.78;;
24145;SDS011;12308;50.948;4.706;2022-08-19T04:59:26;67.38;;;37.03;;
24145;SDS011;12308;50.948;4.706;2022-08-19T05:01:52;67.18;;;36.88;;
24145;SDS011;12308;50.948;4.706;2022-08-19T05:04:18;66.18;;;35.35;;
24145;SDS011;12308;50.948;4.706;2022-08-19T05:06:45;60.63;;;35.25;;
24145;SDS011;12308;50.948;4.706;2022-08-19T05:09:12;69.18;;;36.05;;
24145;SDS011;12308;50.948;4.706;2022-08-19T05:11:38;63.45;;;35.22;;
24145;SDS011;12308;50.948;4.706;2022-08-19T05:14:04;64.53;;;36.53;;
24145;SDS011;12308;50.948;4.706;2022-08-19T05:16:31;61.45;;;34.53;;
24145;SDS011;12308;50.948;4.706;2022-08-19T05:18:57;57.42;;;32.50;;
24145;SDS011;12308;50.948;4.706;2022-08-19T05:21:41;58.65;;;31.58;;
24145;SDS011;12308;50.948;4.706;2022-08-19T05:24:26;56.22;;;29.83;;
24145;SDS011;12308;50.948;4.706;2022-08-19T05:26:53;58.30;;;30.27;;
24145;SDS011;12308;50.948;4.706;2022-08-19T05:29:22;59.13;;;29.50;;
24145;SDS011;12308;50.948;4.706;2022-08-19T05:31:49;51.35;;;29.70;;
24145;SDS011;12308;50.948;4.706;2022-08-19T05:34:17;53.25;;;29.67;;
24145;SDS011;12308;50.948;4.706;2022-08-19T05:36:47;51.70;;;29.90;;
24145;SDS011;12308;50.948;4.706;2022-08-19T05:39:16;50.63;;;27.63;;
24145;SDS011;12308;50.948;4.706;2022-08-19T05:41:43;50.22;;;28.25;;
24145;SDS011;12308;50.948;4.706;2022-08-19T05:44:22;56.45;;;28.40;;
24145;SDS011;12308;50.948;4.706;2022-08-19T05:46:52;50.92;;;28.27;;
24145;SDS011;12308;50.948;4.706;2022-08-19T05:49:19;51.42;;;28.77;;
24145;SDS011;12308;50.948;4.706;2022-08-19T05:51:46;48.17;;;28.27;;
24145;SDS011;12308;50.948;4.706;2022-08-19T05:54:12;58.40;;;28.90;;
24145;SDS011;12308;50.948;4.706;2022-08-19T05:56:41;50.13;;;27.33;;
24145;SDS011;12308;50.948;4.706;2022-08-19T05:59:08;54.35;;;27.73;;
24145;SDS011;12308;50.948;4.706;2022-08-19T06:01:39;50.92;;;27.60;;
24145;SDS011;12308;50.948;4.706;2022-08-19T06:04:07;55.85;;;28.45;;
24145;SDS011;12308;50.948;4.706;2022-08-19T06:06:33;50.90;;;26.92;;
24145;SDS011;12308;50.948;4.706;2022-08-19T06:09:03;49.42;;;28.45;;
24145;SDS011;12308;50.948;4.706;2022-08-19T06:11:32;53.53;;;27.92;;
24145;SDS011;12308;50.948;4.706;2022-08-19T06:14:13;50.10;;;27.90;;
24145;SDS011;12308;50.948;4.706;2022-08-19T06:16:42;51.00;;;26.85;;
24145;SDS011;12308;50.948;4.706;2022-08-19T06:19:09;44.78;;;25.55;;
24145;SDS011;12308;50.948;4.706;2022-08-19T06:21:38;44.03;;;25.60;;
24145;SDS011;12308;50.948;4.706;2022-08-19T06:24:07;41.50;;;24.80;;
24145;SDS011;12308;50.948;4.706;2022-08-19T06:26:37;37.78;;;23.05;;
24145;SDS011;12308;50.948;4.706;2022-08-19T06:29:04;41.30;;;22.80;;
24145;SDS011;12308;50.948;4.706;2022-08-19T06:31:32;44.25;;;23.33;;
24145;SDS011;12308;50.948;4.706;2022-08-19T06:33:59;38.65;;;22.10;;
24145;SDS011;12308;50.948;4.706;2022-08-19T06:36:28;39.17;;;21.73;;
24145;SDS011;12308;50.948;4.706;2022-08-19T06:39:08;43.45;;;22.17;;
24145;SDS011;12308;50.948;4.706;2022-08-19T06:41:37;40.10;;;22.67;;
24145;SDS011;12308;50.948;4.706;2022-08-19T06:44:04;43.10;;;21.60;;
24145;SDS011;12308;50.948;4.706;2022-08-19T06:46:30;38.85;;;19.90;;
24145;SDS011;12308;50.948;4.706;2022-08-19T06:48:57;38.85;;;21.67;;
24145;SDS011;12308;50.948;4.706;2022-08-19T06:51:22;31.77;;;20.00;;
24145;SDS011;12308;50.948;4.706;2022-08-19T06:53:49;38.63;;;19.45;;
24145;SDS011;12308;50.948;4.706;2022-08-19T06:56:17;32.97;;;19.65;;
24145;SDS011;12308;50.948;4.706;2022-08-19T06:58:46;38.83;;;18.98;;
24145;SDS011;12308;50.948;4.706;2022-08-19T07:01:13;32.67;;;18.50;;
24145;SDS011;12308;50.948;4.706;2022-08-19T07:03:39;35.70;;;19.05;;
24145;SDS011;12308;50.948;4.706;2022-08-19T07:06:05;29.45;;;17.95;;
24145;SDS011;12308;50.948;4.706;2022-08-19T07:08:33;34.63;;;18.75;;
24145;SDS011;12308;50.948;4.706;2022-08-19T07:11:00;30.05;;;18.73;;
24145;SDS011;12308;50.948;4.706;2022-08-19T07:13:26;29.83;;;17.85;;
24145;SDS011;12308;50.948;4.706;2022-08-19T07:15:51;35.60;;;18.00;;
24145;SDS011;12308;50.948;4.706;2022-08-19T07:18:18;35.40;;;17.75;;
24145;SDS011;12308;50.948;4.706;2022-08-19T07:20:45;34.15;;;17.92;;
24145;SDS011;12308;50.948;4.706;2022-08-19T07:23:11;31.90;;;18.42;;
24145;SDS011;12308;50.948;4.706;2022-08-19T07:25:37;31.58;;;16.52;;
24145;SDS011;12308;50.948;4.706;2022-08-19T07:28:03;27.13;;;15.15;;
24145;SDS011;12308;50.948;4.706;2022-08-19T07:30:29;32.13;;;16.15;;
24145;SDS011;12308;50.948;4.706;2022-08-19T07:32:55;31.92;;;14.05;;
24145;SDS011;12308;50.948;4.706;2022-08-19T07:35:21;26.60;;;14.52;;
24145;SDS011;12308;50.948;4.706;2022-08-19T07:37:48;25.27;;;14.05;;
24145;SDS011;12308;50.948;4.706;2022-08-19T07:40:14;25.17;;;13.00;;
24145;SDS011;12308;50.948;4.706;2022-08-19T07:42:40;22.92;;;11.90;;
24145;SDS011;12308;50.948;4.706;2022-08-19T07:45:07;17.88;;;10.82;;
24145;SDS011;12308;50.948;4.706;2022-08-19T07:47:34;24.05;;;11.10;;
24145;SDS011;12308;50.948;4.706;2022-08-19T07:50:00;21.25;;;10.85;;
24145;SDS011;12308;50.948;4.706;2022-08-19T07:52:25;17.67;;;9.98;;
24145;SDS011;12308;50.948;4.706;2022-08-19T07:54:51;20.17;;;10.15;;
24145;SDS011;12308;50.948;4.706;2022-08-19T07:57:17;20.20;;;9.48;;
24145;SDS011;12308;50.948;4.706;2022-08-19T07:59:44;19.08;;;10.45;;
24145;SDS011;12308;50.948;4.706;2022-08-19T08:02:10;16.92;;;9.18;;
24145;SDS011;12308;50.948;4.706;2022-08-19T08:04:35;20.33;;;9.77;;
24145;SDS011;12308;50.948;4.706;2022-08-19T08:07:20;17.75;;;10.15;;
24145;SDS011;12308;50.948;4.706;2022-08-19T08:10:05;19.80;;;10.27;;
24145;SDS011;12308;50.948;4.706;2022-08-19T08:12:33;19.30;;;9.93;;
24145;SDS011;12308;50.948;4.706;2022-08-19T08:15:04;17.63;;;10.13;;
24145;SDS011;12308;50.948;4.706;2022-08-19T08:17:32;18.17;;;9.10;;
24145;SDS011;12308;50.948;4.706;2022-08-19T08:19:59;14.32;;;8.93;;
24145;SDS011;12308;50.948;4.706;2022-08-19T08:22:25;15.57;;;9.13;;
24145;SDS011;12308;50.948;4.706;2022-08-19T08:25:14;20.98;;;10.13;;
24145;SDS011;12308;50.948;4.706;2022-08-19T08:27:42;17.65;;;10.55;;
24145;SDS011;12308;50.948;4.706;2022-08-19T08:30:16;17.75;;;10.13;;
24145;SDS011;12308;50.948;4.706;2022-08-19T08:32:50;16.42;;;9.38;;
24145;SDS011;12308;50.948;4.706;2022-08-19T08:35:18;15.65;;;9.60;;
24145;SDS011;12308;50.948;4.706;2022-08-19T08:37:47;12.25;;;9.05;;
24145;SDS011;12308;50.948;4.706;2022-08-19T08:42:55;14.77;;;8.27;;
24145;SDS011;12308;50.948;4.706;2022-08-19T08:45:34;13.55;;;8.27;;
24145;SDS011;12308;50.948;4.706;2022-08-19T08:48:16;13.70;;;8.45;;
24145;SDS011;12308;50.948;4.706;2022-08-19T08:50:46;11.30;;;8.57;;
24145;SDS011;12308;50.948;4.706;2022-08-19T08:53:16;15.43;;;8.95;;
24145;SDS011;12308;50.948;4.706;2022-08-19T08:55:43;10.57;;;7.40;;
24145;SDS011;12308;50.948;4.706;2022-08-19T08:58:15;27.05;;;9.60;;
24145;SDS011;12308;50.948;4.706;2022-08-19T09:00:56;16.70;;;8.27;;
24145;SDS011;12308;50.948;4.706;2022-08-19T09:03:23;13.02;;;9.20;;
24145;SDS011;12308;50.948;4.706;2022-08-19T09:06:04;18.17;;;7.80;;
24145;SDS011;12308;50.948;4.706;2022-08-19T09:11:29;11.25;;;7.88;;
24145;SDS011;12308;50.948;4.706;2022-08-19T09:17:15;11.63;;;7.40;;
24145;SDS011;12308;50.948;4.706;2022-08-19T09:19:51;10.95;;;6.70;;
24145;SDS011;12308;50.948;4.706;2022-08-19T09:22:32;10.07;;;6.18;;
24145;SDS011;12308;50.948;4.706;2022-08-19T09:24:58;11.15;;;6.85;;
24145;SDS011;12308;50.948;4.706;2022-08-19T09:27:25;11.77;;;6.85;;
24145;SDS011;12308;50.948;4.706;2022-08-19T09:29:51;13.63;;;6.60;;
24145;SDS011;12308;50.948;4.706;2022-08-19T09:32:18;10.63;;;6.72;;
24145;SDS011;12308;50.948;4.706;2022-08-19T09:34:45;10.32;;;6.30;;
24145;SDS011;12308;50.948;4.706;2022-08-19T09:37:11;13.73;;;7.40;;
24145;SDS011;12308;50.948;4.706;2022-08-19T09:39:38;12.73;;;7.72;;
24145;SDS011;12308;50.948;4.706;2022-08-19T09:42:06;13.32;;;7.53;;
24145;SDS011;12308;50.948;4.706;2022-08-19T09:44:37;12.32;;;7.22;;
24145;SDS011;12308;50.948;4.706;2022-08-19T09:47:03;14.63;;;7.72;;
24145;SDS011;12308;50.948;4.706;2022-08-19T09:49:29;12.68;;;7.88;;
24145;SDS011;12308;50.948;4.706;2022-08-19T09:51:55;10.10;;;6.80;;
24145;SDS011;12308;50.948;4.706;2022-08-19T09:54:22;10.63;;;7.22;;
24145;SDS011;12308;50.948;4.706;2022-08-19T09:56:48;13.77;;;7.40;;
24145;SDS011;12308;50.948;4.706;2022-08-19T09:59:14;12.18;;;7.30;;
24145;SDS011;12308;50.948;4.706;2022-08-19T10:01:40;14.50;;;6.90;;
24145;SDS011;12308;50.948;4.706;2022-08-19T10:04:05;19.45;;;8.60;;
24145;SDS011;12308;50.948;4.706;2022-08-19T10:06:35;14.27;;;7.75;;
24145;SDS011;12308;50.948;4.706;2022-08-19T10:09:02;13.40;;;8.18;;
24145;SDS011;12308;50.948;4.706;2022-08-19T10:11:31;13.27;;;7.53;;
24145;SDS011;12308;50.948;4.706;2022-08-19T10:13:57;12.60;;;7.78;;
24145;SDS011;12308;50.948;4.706;2022-08-19T10:16:24;11.43;;;7.05;;
24145;SDS011;12308;50.948;4.706;2022-08-19T10:18:50;9.98;;;7.40;;
24145;SDS011;12308;50.948;4.706;2022-08-19T10:21:18;13.40;;;7.00;;
24145;SDS011;12308;50.948;4.706;2022-08-19T10:23:47;17.55;;;7.47;;
24145;SDS011;12308;50.948;4.706;2022-08-19T10:26:19;10.52;;;7.15;;
24145;SDS011;12308;50.948;4.706;2022-08-19T10:28:47;13.10;;;7.65;;
24145;SDS011;12308;50.948;4.706;2022-08-19T10:31:15;14.75;;;7.55;;
24145;SDS011;12308;50.948;4.706;2022-08-19T10:33:44;11.85;;;6.88;;
24145;SDS011;12308;50.948;4.706;2022-08-19T10:36:15;10.93;;;7.30;;
24145;SDS011;12308;50.948;4.706;2022-08-19T10:38:43;10.77;;;7.53;;
24145;SDS011;12308;50.948;4.706;2022-08-19T10:41:15;9.43;;;6.80;;
24145;SDS011;12308;50.948;4.706;2022-08-19T10:43:43;9.82;;;7.47;;
24145;SDS011;12308;50.948;4.706;2022-08-19T10:46:10;12.10;;;7.70;;
24145;SDS011;12308;50.948;4.706;2022-08-19T10:48:38;12.05;;;7.65;;
24145;SDS011;12308;50.948;4.706;2022-08-19T10:51:04;11.15;;;7.05;;
24145;SDS011;12308;50.948;4.706;2022-08-19T10:53:49;12.43;;;7.35;;
24145;SDS011;12308;50.948;4.706;2022-08-19T10:56:16;17.25;;;7.18;;
24145;SDS011;12308;50.948;4.706;2022-08-19T10:59:01;12.98;;;7.55;;
24145;SDS011;12308;50.948;4.706;2022-08-19T11:01:28;15.25;;;7.43;;
24145;SDS011;12308;50.948;4.706;2022-08-19T11:03:56;15.88;;;7.40;;
24145;SDS011;12308;50.948;4.706;2022-08-19T11:06:22;11.95;;;5.88;;
24145;SDS011;12308;50.948;4.706;2022-08-19T11:08:50;14.18;;;7.25;;
24145;SDS011;12308;50.948;4.706;2022-08-19T11:11:17;11.98;;;6.68;;
24145;SDS011;12308;50.948;4.706;2022-08-19T11:13:43;8.65;;;5.50;;
24145;SDS011;12308;50.948;4.706;2022-08-19T11:16:15;12.85;;;6.18;;
24145;SDS011;12308;50.948;4.706;2022-08-19T11:18:48;11.07;;;6.68;;
24145;SDS011;12308;50.948;4.706;2022-08-19T11:23:49;10.23;;;6.03;;
24145;SDS011;12308;50.948;4.706;2022-08-19T11:26:18;13.63;;;6.03;;
24145;SDS011;12308;50.948;4.706;2022-08-19T11:28:44;11.90;;;5.80;;
24145;SDS011;12308;50.948;4.706;2022-08-19T11:31:15;12.43;;;5.70;;
24145;SDS011;12308;50.948;4.706;2022-08-19T11:33:44;10.40;;;5.22;;
24145;SDS011;12308;50.948;4.706;2022-08-19T11:36:11;10.52;;;5.28;;
24145;SDS011;12308;50.948;4.706;2022-08-19T11:38:37;10.38;;;4.30;;
24145;SDS011;12308;50.948;4.706;2022-08-19T11:41:05;6.35;;;4.13;;
24145;SDS011;12308;50.948;4.706;2022-08-19T11:43:32;7.25;;;4.30;;
24145;SDS011;12308;50.948;4.706;2022-08-19T11:45:59;11.90;;;4.38;;
24145;SDS011;12308;50.948;4.706;2022-08-19T11:48:28;12.32;;;4.65;;
24145;SDS011;12308;50.948;4.706;2022-08-19T11:50:54;7.53;;;5.07;;
24145;SDS011;12308;50.948;4.706;2022-08-19T11:53:21;8.00;;;5.28;;
24145;SDS011;12308;50.948;4.706;2022-08-19T11:55:47;11.05;;;5.50;;
24145;SDS011;12308;50.948;4.706;2022-08-19T11:58:14;6.65;;;4.88;;
24145;SDS011;12308;50.948;4.706;2022-08-19T12:00:41;12.95;;;6.38;;
24145;SDS011;12308;50.948;4.706;2022-08-19T12:03:10;11.50;;;6.00;;
24145;SDS011;12308;50.948;4.706;2022-08-19T12:05:37;11.32;;;5.85;;
24145;SDS011;12308;50.948;4.706;2022-08-19T12:08:04;12.20;;;5.82;;
24145;SDS011;12308;50.948;4.706;2022-08-19T12:10:30;10.27;;;6.32;;
24145;SDS011;12308;50.948;4.706;2022-08-19T12:12:56;15.05;;;7.80;;
24145;SDS011;12308;50.948;4.706;2022-08-19T12:15:22;11.93;;;6.88;;
24145;SDS011;12308;50.948;4.706;2022-08-19T12:17:47;12.73;;;7.00;;
24145;SDS011;12308;50.948;4.706;2022-08-19T12:20:13;9.43;;;5.75;;
24145;SDS011;12308;50.948;4.706;2022-08-19T12:22:40;9.63;;;5.28;;
24145;SDS011;12308;50.948;4.706;2022-08-19T12:25:08;9.55;;;5.03;;
24145;SDS011;12308;50.948;4.706;2022-08-19T12:27:36;10.15;;;5.55;;
24145;SDS011;12308;50.948;4.706;2022-08-19T12:30:03;10.43;;;5.45;;
24145;SDS011;12308;50.948;4.706;2022-08-19T12:32:29;7.55;;;5.30;;
24145;SDS011;12308;50.948;4.706;2022-08-19T12:34:54;8.68;;;5.38;;
24145;SDS011;12308;50.948;4.706;2022-08-19T12:37:20;6.85;;;5.50;;
24145;SDS011;12308;50.948;4.706;2022-08-19T12:39:46;6.78;;;4.95;;
24145;SDS011;12308;50.948;4.706;2022-08-19T12:42:12;9.63;;;5.47;;
24145;SDS011;12308;50.948;4.706;2022-08-19T12:44:40;6.43;;;4.95;;
24145;SDS011;12308;50.948;4.706;2022-08-19T12:47:07;9.35;;;5.70;;
24145;SDS011;12308;50.948;4.706;2022-08-19T12:49:35;8.32;;;5.40;;
24145;SDS011;12308;50.948;4.706;2022-08-19T12:52:03;11.25;;;6.78;;
24145;SDS011;12308;50.948;4.706;2022-08-19T12:54:29;8.32;;;6.05;;
24145;SDS011;12308;50.948;4.706;2022-08-19T12:56:56;11.75;;;7.82;;
24145;SDS011;12308;50.948;4.706;2022-08-19T12:59:22;13.27;;;7.85;;
24145;SDS011;12308;50.948;4.706;2022-08-19T13:01:47;10.95;;;7.13;;
24145;SDS011;12308;50.948;4.706;2022-08-19T13:04:13;11.02;;;6.88;;
24145;SDS011;12308;50.948;4.706;2022-08-19T13:06:40;12.23;;;6.68;;
24145;SDS011;12308;50.948;4.706;2022-08-19T13:09:07;11.43;;;7.35;;
24145;SDS011;12308;50.948;4.706;2022-08-19T13:11:33;11.00;;;8.52;;
24145;SDS011;12308;50.948;4.706;2022-08-19T13:14:00;12.95;;;7.18;;
24145;SDS011;12308;50.948;4.706;2022-08-19T13:16:27;10.82;;;7.88;;
24145;SDS011;12308;50.948;4.706;2022-08-19T13:18:53;10.93;;;8.10;;
24145;SDS011;12308;50.948;4.706;2022-08-19T13:21:21;11.88;;;7.60;;
24145;SDS011;12308;50.948;4.706;2022-08-19T13:23:50;11.68;;;7.70;;
24145;SDS011;12308;50.948;4.706;2022-08-19T13:26:17;9.13;;;7.63;;
24145;SDS011;12308;50.948;4.706;2022-08-19T13:28:44;12.20;;;8.15;;
24145;SDS011;12308;50.948;4.706;2022-08-19T13:31:40;12.50;;;7.18;;
24145;SDS011;12308;50.948;4.706;2022-08-19T13:34:30;13.90;;;7.97;;
24145;SDS011;12308;50.948;4.706;2022-08-19T13:36:59;11.80;;;7.60;;
24145;SDS011;12308;50.948;4.706;2022-08-19T13:39:28;14.15;;;6.90;;
24145;SDS011;12308;50.948;4.706;2022-08-19T13:41:54;9.85;;;6.35;;
24145;SDS011;12308;50.948;4.706;2022-08-19T13:44:20;9.07;;;5.90;;
24145;SDS011;12308;50.948;4.706;2022-08-19T13:46:46;15.95;;;6.78;;
24145;SDS011;12308;50.948;4.706;2022-08-19T13:49:13;10.00;;;5.60;;
24145;SDS011;12308;50.948;4.706;2022-08-19T13:51:40;6.90;;;5.05;;
24145;SDS011;12308;50.948;4.706;2022-08-19T13:54:10;6.53;;;5.82;;
24145;SDS011;12308;50.948;4.706;2022-08-19T13:56:43;7.38;;;5.35;;
24145;SDS011;12308;50.948;4.706;2022-08-19T13:59:11;8.25;;;5.22;;
24145;SDS011;12308;50.948;4.706;2022-08-19T14:01:37;10.77;;;5.43;;
24145;SDS011;12308;50.948;4.706;2022-08-19T14:04:03;7.45;;;5.32;;
24145;SDS011;12308;50.948;4.706;2022-08-19T14:06:30;7.68;;;4.65;;
24145;SDS011;12308;50.948;4.706;2022-08-19T14:08:56;6.47;;;4.40;;
24145;SDS011;12308;50.948;4.706;2022-08-19T14:11:22;5.97;;;4.32;;
24145;SDS011;12308;50.948;4.706;2022-08-19T14:13:48;10.30;;;4.28;;
24145;SDS011;12308;50.948;4.706;2022-08-19T14:16:14;5.25;;;3.63;;
24145;SDS011;12308;50.948;4.706;2022-08-19T14:18:40;4.13;;;3.25;;
24145;SDS011;12308;50.948;4.706;2022-08-19T14:21:07;5.63;;;3.00;;
24145;SDS011;12308;50.948;4.706;2022-08-19T14:23:38;3.78;;;3.00;;
24145;SDS011;12308;50.948;4.706;2022-08-19T14:26:08;4.45;;;3.00;;
24145;SDS011;12308;50.948;4.706;2022-08-19T14:28:37;5.53;;;3.15;;
24145;SDS011;12308;50.948;4.706;2022-08-19T14:31:04;4.40;;;2.70;;
24145;SDS011;12308;50.948;4.706;2022-08-19T14:33:30;6.25;;;3.08;;
24145;SDS011;12308;50.948;4.706;2022-08-19T14:35:57;5.32;;;3.28;;
24145;SDS011;12308;50.948;4.706;2022-08-19T14:38:22;4.63;;;2.97;;
24145;SDS011;12308;50.948;4.706;2022-08-19T14:40:48;6.28;;;2.78;;
24145;SDS011;12308;50.948;4.706;2022-08-19T14:43:14;4.32;;;2.22;;
24145;SDS011;12308;50.948;4.706;2022-08-19T14:45:40;2.28;;;1.52;;